sensor_id;sensor_type;location;lat;lon;timestamp;temperature;humidity
7218;DHT22;3650;53.580;10.094;2023-04-25T00:00:45;11.20;86.90
7218;DHT22;3650;53.580;10.094;2023-04-25T00:03:13;11.30;88.40
7218;DHT22;3650;53.580;10.094;2023-04-25T00:05:40;11.30;89.10
7218;DHT22;3650;53.580;10.094;2023-04-25T00:08:07;11.30;90.00
7218;DHT22;3650;53.580;10.094;2023-04-25T00:10:34;11.20;89.10
7218;DHT22;3650;53.580;10.094;2023-04-25T00:13:00;11.20;89.60
7218;DHT22;3650;53.580;10.094;2023-04-25T00:15:28;11.20;90.10
7218;DHT22;3650;53.580;10.094;2023-04-25T00:17:56;11.20;90.60
7218;DHT22;3650;53.580;10.094;2023-04-25T00:20:25;11.20;90.20
7218;DHT22;3650;53.580;10.094;2023-04-25T00:22:52;11.10;90.10
7218;DHT22;3650;53.580;10.094;2023-04-25T00:25:19;11.10;90.00
7218;DHT22;3650;53.580;10.094;2023-04-25T00:27:46;11.00;90.10
7218;DHT22;3650;53.580;10.094;2023-04-25T00:30:13;10.90;90.00
7218;DHT22;3650;53.580;10.094;2023-04-25T00:32:40;10.90;89.90
7218;DHT22;3650;53.580;10.094;2023-04-25T00:35:08;10.80;90.10
7218;DHT22;3650;53.580;10.094;2023-04-25T00:37:36;10.80;90.30
7218;DHT22;3650;53.580;10.094;2023-04-25T00:40:06;10.80;90.60
7218;DHT22;3650;53.580;10.094;2023-04-25T00:42:34;10.80;90.40
7218;DHT22;3650;53.580;10.094;2023-04-25T00:45:01;10.70;90.40
7218;DHT22;3650;53.580;10.094;2023-04-25T00:47:29;10.70;90.10
7218;DHT22;3650;53.580;10.094;2023-04-25T00:49:55;10.60;89.00
7218;DHT22;3650;53.580;10.094;2023-04-25T00:52:22;10.60;88.10
7218;DHT22;3650;53.580;10.094;2023-04-25T00:54:51;10.60;87.50
7218;DHT22;3650;53.580;10.094;2023-04-25T00:57:18;10.60;85.90
7218;DHT22;3650;53.580;10.094;2023-04-25T00:59:45;10.50;83.90
7218;DHT22;3650;53.580;10.094;2023-04-25T01:02:13;10.40;84.30
7218;DHT22;3650;53.580;10.094;2023-04-25T01:04:40;10.40;84.60
7218;DHT22;3650;53.580;10.094;2023-04-25T01:07:06;10.40;84.60
7218;DHT22;3650;53.580;10.094;2023-04-25T01:09:34;10.40;85.00
7218;DHT22;3650;53.580;10.094;2023-04-25T01:12:02;10.40;84.70
7218;DHT22;3650;53.580;10.094;2023-04-25T01:14:29;10.40;84.70
7218;DHT22;3650;53.580;10.094;2023-04-25T01:16:56;10.40;84.60
7218;DHT22;3650;53.580;10.094;2023-04-25T01:19:23;10.40;82.80
7218;DHT22;3650;53.580;10.094;2023-04-25T01:21:52;10.40;81.10
7218;DHT22;3650;53.580;10.094;2023-04-25T01:24:18;10.40;80.00
7218;DHT22;3650;53.580;10.094;2023-04-25T01:26:45;10.30;79.20
7218;DHT22;3650;53.580;10.094;2023-04-25T01:29:15;10.30;79.00
7218;DHT22;3650;53.580;10.094;2023-04-25T01:31:42;10.30;77.50
7218;DHT22;3650;53.580;10.094;2023-04-25T01:34:09;10.30;77.40
7218;DHT22;3650;53.580;10.094;2023-04-25T01:36:36;10.20;76.20
7218;DHT22;3650;53.580;10.094;2023-04-25T01:39:05;10.20;76.40
7218;DHT22;3650;53.580;10.094;2023-04-25T01:41:32;10.20;77.50
7218;DHT22;3650;53.580;10.094;2023-04-25T01:44:00;10.20;77.00
7218;DHT22;3650;53.580;10.094;2023-04-25T01:46:27;10.20;74.60
7218;DHT22;3650;53.580;10.094;2023-04-25T01:48:54;10.10;73.50
7218;DHT22;3650;53.580;10.094;2023-04-25T01:51:21;10.10;73.50
7218;DHT22;3650;53.580;10.094;2023-04-25T01:53:48;10.10;73.50
7218;DHT22;3650;53.580;10.094;2023-04-25T01:56:17;10.10;71.40
7218;DHT22;3650;53.580;10.094;2023-04-25T01:58:45;10.00;70.40
7218;DHT22;3650;53.580;10.094;2023-04-25T02:01:12;10.00;70.60
7218;DHT22;3650;53.580;10.094;2023-04-25T02:03:39;10.00;69.30
7218;DHT22;3650;53.580;10.094;2023-04-25T02:06:06;10.00;68.40
7218;DHT22;3650;53.580;10.094;2023-04-25T02:08:32;10.00;68.60
7218;DHT22;3650;53.580;10.094;2023-04-25T02:10:59;10.00;68.10
7218;DHT22;3650;53.580;10.094;2023-04-25T02:13:27;9.90;70.80
7218;DHT22;3650;53.580;10.094;2023-04-25T02:15:54;9.90;69.70
7218;DHT22;3650;53.580;10.094;2023-04-25T02:18:21;9.90;69.20
7218;DHT22;3650;53.580;10.094;2023-04-25T02:20:48;9.90;68.00
7218;DHT22;3650;53.580;10.094;2023-04-25T02:23:15;9.90;68.10
7218;DHT22;3650;53.580;10.094;2023-04-25T02:25:44;9.90;67.20
7218;DHT22;3650;53.580;10.094;2023-04-25T02:28:11;9.90;67.40
7218;DHT22;3650;53.580;10.094;2023-04-25T02:30:39;9.80;66.10
7218;DHT22;3650;53.580;10.094;2023-04-25T02:33:06;9.80;65.70
7218;DHT22;3650;53.580;10.094;2023-04-25T02:35:33;9.80;66.10
7218;DHT22;3650;53.580;10.094;2023-04-25T02:38:00;9.80;66.90
7218;DHT22;3650;53.580;10.094;2023-04-25T02:40:27;9.90;67.30
7218;DHT22;3650;53.580;10.094;2023-04-25T02:42:54;9.80;67.80
7218;DHT22;3650;53.580;10.094;2023-04-25T02:45:21;9.80;67.30
7218;DHT22;3650;53.580;10.094;2023-04-25T02:47:49;9.80;67.90
7218;DHT22;3650;53.580;10.094;2023-04-25T02:50:16;9.90;68.50
7218;DHT22;3650;53.580;10.094;2023-04-25T02:52:44;9.90;66.10
7218;DHT22;3650;53.580;10.094;2023-04-25T02:55:11;9.80;65.40
7218;DHT22;3650;53.580;10.094;2023-04-25T02:57:38;9.80;64.80
7218;DHT22;3650;53.580;10.094;2023-04-25T03:00:06;9.80;63.90
7218;DHT22;3650;53.580;10.094;2023-04-25T03:02:33;9.80;64.20
7218;DHT22;3650;53.580;10.094;2023-04-25T03:05:02;9.80;64.30
7218;DHT22;3650;53.580;10.094;2023-04-25T03:07:28;9.80;64.80
7218;DHT22;3650;53.580;10.094;2023-04-25T03:09:55;9.70;64.00
7218;DHT22;3650;53.580;10.094;2023-04-25T03:12:22;9.70;62.90
7218;DHT22;3650;53.580;10.094;2023-04-25T03:14:50;9.70;62.90
7218;DHT22;3650;53.580;10.094;2023-04-25T03:17:16;9.70;62.80
7218;DHT22;3650;53.580;10.094;2023-04-25T03:19:43;9.60;61.90
7218;DHT22;3650;53.580;10.094;2023-04-25T03:22:11;9.70;61.30
7218;DHT22;3650;53.580;10.094;2023-04-25T03:24:38;9.60;60.00
7218;DHT22;3650;53.580;10.094;2023-04-25T03:27:05;9.60;57.50
7218;DHT22;3650;53.580;10.094;2023-04-25T03:29:32;9.60;57.90
7218;DHT22;3650;53.580;10.094;2023-04-25T03:31:59;9.50;56.10
7218;DHT22;3650;53.580;10.094;2023-04-25T03:34:25;9.50;56.40
7218;DHT22;3650;53.580;10.094;2023-04-25T03:36:53;9.50;56.40
7218;DHT22;3650;53.580;10.094;2023-04-25T03:39:21;9.50;56.20
7218;DHT22;3650;53.580;10.094;2023-04-25T03:41:48;9.50;56.30
7218;DHT22;3650;53.580;10.094;2023-04-25T03:44:15;9.50;55.90
7218;DHT22;3650;53.580;10.094;2023-04-25T03:46:42;9.40;55.20
7218;DHT22;3650;53.580;10.094;2023-04-25T03:49:09;9.40;54.50
7218;DHT22;3650;53.580;10.094;2023-04-25T03:51:36;9.40;54.30
7218;DHT22;3650;53.580;10.094;2023-04-25T03:54:03;9.40;54.50
7218;DHT22;3650;53.580;10.094;2023-04-25T03:56:31;9.40;52.30
7218;DHT22;3650;53.580;10.094;2023-04-25T03:58:58;9.40;51.50
7218;DHT22;3650;53.580;10.094;2023-04-25T04:01:24;9.40;51.30
7218;DHT22;3650;53.580;10.094;2023-04-25T04:03:51;9.40;50.20
7218;DHT22;3650;53.580;10.094;2023-04-25T04:06:18;9.30;50.10
7218;DHT22;3650;53.580;10.094;2023-04-25T04:08:46;9.30;49.70
7218;DHT22;3650;53.580;10.094;2023-04-25T04:11:13;9.40;50.20
7218;DHT22;3650;53.580;10.094;2023-04-25T04:13:41;9.40;50.00
7218;DHT22;3650;53.580;10.094;2023-04-25T04:16:07;9.30;48.90
7218;DHT22;3650;53.580;10.094;2023-04-25T04:18:34;9.30;49.70
7218;DHT22;3650;53.580;10.094;2023-04-25T04:21:01;9.30;49.80
7218;DHT22;3650;53.580;10.094;2023-04-25T04:23:28;9.30;48.70
7218;DHT22;3650;53.580;10.094;2023-04-25T04:25:55;9.30;48.90
7218;DHT22;3650;53.580;10.094;2023-04-25T04:28:22;9.30;49.30
7218;DHT22;3650;53.580;10.094;2023-04-25T04:30:50;9.30;49.30
7218;DHT22;3650;53.580;10.094;2023-04-25T04:33:18;9.30;49.10
7218;DHT22;3650;53.580;10.094;2023-04-25T04:35:45;9.30;48.30
7218;DHT22;3650;53.580;10.094;2023-04-25T04:38:12;9.40;48.00
7218;DHT22;3650;53.580;10.094;2023-04-25T04:40:41;9.40;47.50
7218;DHT22;3650;53.580;10.094;2023-04-25T04:43:08;9.40;46.70
7218;DHT22;3650;53.580;10.094;2023-04-25T04:45:36;9.40;46.00
7218;DHT22;3650;53.580;10.094;2023-04-25T04:48:05;9.40;45.20
7218;DHT22;3650;53.580;10.094;2023-04-25T04:50:32;9.40;45.50
7218;DHT22;3650;53.580;10.094;2023-04-25T04:53:00;9.40;45.60
7218;DHT22;3650;53.580;10.094;2023-04-25T04:55:26;9.40;45.70
7218;DHT22;3650;53.580;10.094;2023-04-25T04:57:53;9.40;45.50
7218;DHT22;3650;53.580;10.094;2023-04-25T05:00:20;9.40;45.00
7218;DHT22;3650;53.580;10.094;2023-04-25T05:02:47;9.40;44.00
7218;DHT22;3650;53.580;10.094;2023-04-25T05:05:15;9.40;43.80
7218;DHT22;3650;53.580;10.094;2023-04-25T05:07:42;9.40;44.20
7218;DHT22;3650;53.580;10.094;2023-04-25T05:10:11;9.40;45.30
7218;DHT22;3650;53.580;10.094;2023-04-25T05:12:38;9.40;45.00
7218;DHT22;3650;53.580;10.094;2023-04-25T05:15:05;9.40;44.20
7218;DHT22;3650;53.580;10.094;2023-04-25T05:17:32;9.50;44.40
7218;DHT22;3650;53.580;10.094;2023-04-25T05:19:59;9.50;45.10
7218;DHT22;3650;53.580;10.094;2023-04-25T05:22:27;9.50;44.10
7218;DHT22;3650;53.580;10.094;2023-04-25T05:24:54;9.50;42.90
7218;DHT22;3650;53.580;10.094;2023-04-25T05:27:21;9.50;43.50
7218;DHT22;3650;53.580;10.094;2023-04-25T05:29:47;9.50;44.90
7218;DHT22;3650;53.580;10.094;2023-04-25T05:32:14;9.40;45.30
7218;DHT22;3650;53.580;10.094;2023-04-25T05:34:41;9.40;46.40
7218;DHT22;3650;53.580;10.094;2023-04-25T05:37:08;9.30;47.70
7218;DHT22;3650;53.580;10.094;2023-04-25T05:39:36;9.20;49.50
7218;DHT22;3650;53.580;10.094;2023-04-25T05:42:03;9.20;50.00
7218;DHT22;3650;53.580;10.094;2023-04-25T05:44:30;9.30;50.00
7218;DHT22;3650;53.580;10.094;2023-04-25T05:46:57;9.20;49.90
7218;DHT22;3650;53.580;10.094;2023-04-25T05:49:24;9.20;50.00
7218;DHT22;3650;53.580;10.094;2023-04-25T05:51:50;9.20;50.00
7218;DHT22;3650;53.580;10.094;2023-04-25T05:54:17;9.20;50.00
7218;DHT22;3650;53.580;10.094;2023-04-25T05:56:45;9.20;50.00
7218;DHT22;3650;53.580;10.094;2023-04-25T05:59:12;9.20;50.00
7218;DHT22;3650;53.580;10.094;2023-04-25T06:01:39;9.20;50.40
7218;DHT22;3650;53.580;10.094;2023-04-25T06:04:06;9.20;50.00
7218;DHT22;3650;53.580;10.094;2023-04-25T06:06:33;9.20;50.00
7218;DHT22;3650;53.580;10.094;2023-04-25T06:09:00;9.30;49.40
7218;DHT22;3650;53.580;10.094;2023-04-25T06:11:26;9.30;49.80
7218;DHT22;3650;53.580;10.094;2023-04-25T06:13:55;9.20;48.30
7218;DHT22;3650;53.580;10.094;2023-04-25T06:16:21;9.20;48.00
7218;DHT22;3650;53.580;10.094;2023-04-25T06:18:51;9.30;48.50
7218;DHT22;3650;53.580;10.094;2023-04-25T06:21:18;9.30;48.00
7218;DHT22;3650;53.580;10.094;2023-04-25T06:23:44;9.30;48.10
7218;DHT22;3650;53.580;10.094;2023-04-25T06:26:11;9.30;48.60
7218;DHT22;3650;53.580;10.094;2023-04-25T06:28:38;9.30;48.40
7218;DHT22;3650;53.580;10.094;2023-04-25T06:31:07;9.30;48.40
7218;DHT22;3650;53.580;10.094;2023-04-25T06:33:33;9.30;48.30
7218;DHT22;3650;53.580;10.094;2023-04-25T06:36:00;9.40;47.90
7218;DHT22;3650;53.580;10.094;2023-04-25T06:38:27;9.40;48.40
7218;DHT22;3650;53.580;10.094;2023-04-25T06:40:54;9.40;49.60
7218;DHT22;3650;53.580;10.094;2023-04-25T06:43:21;9.40;49.00
7218;DHT22;3650;53.580;10.094;2023-04-25T06:45:47;9.40;49.30
7218;DHT22;3650;53.580;10.094;2023-04-25T06:48:15;9.40;49.80
7218;DHT22;3650;53.580;10.094;2023-04-25T06:50:42;9.40;50.10
7218;DHT22;3650;53.580;10.094;2023-04-25T06:53:09;9.40;51.50
7218;DHT22;3650;53.580;10.094;2023-04-25T06:55:37;9.40;51.80
7218;DHT22;3650;53.580;10.094;2023-04-25T06:58:03;9.40;50.90
7218;DHT22;3650;53.580;10.094;2023-04-25T07:00:30;9.40;50.90
7218;DHT22;3650;53.580;10.094;2023-04-25T07:02:57;9.50;51.10
7218;DHT22;3650;53.580;10.094;2023-04-25T07:05:25;9.50;51.40
7218;DHT22;3650;53.580;10.094;2023-04-25T07:07:52;9.50;50.20
7218;DHT22;3650;53.580;10.094;2023-04-25T07:10:19;9.50;50.20
7218;DHT22;3650;53.580;10.094;2023-04-25T07:12:46;9.50;50.20
7218;DHT22;3650;53.580;10.094;2023-04-25T07:15:13;9.50;51.50
7218;DHT22;3650;53.580;10.094;2023-04-25T07:17:40;9.50;50.20
7218;DHT22;3650;53.580;10.094;2023-04-25T07:20:08;9.50;50.20
7218;DHT22;3650;53.580;10.094;2023-04-25T07:22:36;9.50;50.10
7218;DHT22;3650;53.580;10.094;2023-04-25T07:25:04;9.60;48.90
7218;DHT22;3650;53.580;10.094;2023-04-25T07:27:31;9.50;48.70
7218;DHT22;3650;53.580;10.094;2023-04-25T07:29:58;9.50;48.70
7218;DHT22;3650;53.580;10.094;2023-04-25T07:32:25;9.50;49.90
7218;DHT22;3650;53.580;10.094;2023-04-25T07:34:52;9.50;50.20
7218;DHT22;3650;53.580;10.094;2023-04-25T07:37:19;9.50;52.00
7218;DHT22;3650;53.580;10.094;2023-04-25T07:39:47;9.50;54.60
7218;DHT22;3650;53.580;10.094;2023-04-25T07:42:14;9.50;55.40
7218;DHT22;3650;53.580;10.094;2023-04-25T07:44:41;9.50;56.00
7218;DHT22;3650;53.580;10.094;2023-04-25T07:47:08;9.40;56.20
7218;DHT22;3650;53.580;10.094;2023-04-25T07:49:36;9.40;54.80
7218;DHT22;3650;53.580;10.094;2023-04-25T07:52:04;9.40;53.30
7218;DHT22;3650;53.580;10.094;2023-04-25T07:54:32;9.40;53.70
7218;DHT22;3650;53.580;10.094;2023-04-25T07:57:00;9.40;52.70
7218;DHT22;3650;53.580;10.094;2023-04-25T07:59:27;9.30;52.40
7218;DHT22;3650;53.580;10.094;2023-04-25T08:01:54;9.40;52.70
7218;DHT22;3650;53.580;10.094;2023-04-25T08:04:22;9.40;52.90
7218;DHT22;3650;53.580;10.094;2023-04-25T08:06:49;9.40;52.80
7218;DHT22;3650;53.580;10.094;2023-04-25T08:09:16;9.40;51.40
7218;DHT22;3650;53.580;10.094;2023-04-25T08:11:43;9.50;52.00
7218;DHT22;3650;53.580;10.094;2023-04-25T08:14:12;9.50;52.20
7218;DHT22;3650;53.580;10.094;2023-04-25T08:16:39;9.60;50.70
7218;DHT22;3650;53.580;10.094;2023-04-25T08:19:05;9.60;50.90
7218;DHT22;3650;53.580;10.094;2023-04-25T08:21:32;9.60;51.50
7218;DHT22;3650;53.580;10.094;2023-04-25T08:23:59;9.60;50.30
7218;DHT22;3650;53.580;10.094;2023-04-25T08:26:26;9.70;48.90
7218;DHT22;3650;53.580;10.094;2023-04-25T08:28:53;9.60;47.90
7218;DHT22;3650;53.580;10.094;2023-04-25T08:31:21;9.70;48.20
7218;DHT22;3650;53.580;10.094;2023-04-25T08:33:47;9.70;50.40
7218;DHT22;3650;53.580;10.094;2023-04-25T08:36:15;9.70;52.60
7218;DHT22;3650;53.580;10.094;2023-04-25T08:38:43;9.60;53.30
7218;DHT22;3650;53.580;10.094;2023-04-25T08:41:11;9.60;54.20
7218;DHT22;3650;53.580;10.094;2023-04-25T08:43:39;9.60;55.00
7218;DHT22;3650;53.580;10.094;2023-04-25T08:46:08;9.60;56.10
7218;DHT22;3650;53.580;10.094;2023-04-25T08:48:37;9.60;56.30
7218;DHT22;3650;53.580;10.094;2023-04-25T08:51:07;9.60;57.00
7218;DHT22;3650;53.580;10.094;2023-04-25T08:53:34;9.60;56.80
7218;DHT22;3650;53.580;10.094;2023-04-25T08:56:01;9.50;57.20
7218;DHT22;3650;53.580;10.094;2023-04-25T08:58:28;9.60;58.50
7218;DHT22;3650;53.580;10.094;2023-04-25T09:00:55;9.60;58.90
7218;DHT22;3650;53.580;10.094;2023-04-25T09:03:22;9.60;59.90
7218;DHT22;3650;53.580;10.094;2023-04-25T09:05:51;9.60;60.30
7218;DHT22;3650;53.580;10.094;2023-04-25T09:08:18;9.60;60.00
7218;DHT22;3650;53.580;10.094;2023-04-25T09:10:45;9.60;59.70
7218;DHT22;3650;53.580;10.094;2023-04-25T09:13:14;9.60;58.10
7218;DHT22;3650;53.580;10.094;2023-04-25T09:15:48;9.70;58.00
7218;DHT22;3650;53.580;10.094;2023-04-25T09:18:22;9.70;52.80
7218;DHT22;3650;53.580;10.094;2023-04-25T09:20:52;9.70;52.30
7218;DHT22;3650;53.580;10.094;2023-04-25T09:23:20;9.70;50.40
7218;DHT22;3650;53.580;10.094;2023-04-25T09:25:48;9.70;49.20
7218;DHT22;3650;53.580;10.094;2023-04-25T09:28:15;9.80;47.30
7218;DHT22;3650;53.580;10.094;2023-04-25T09:30:42;9.80;47.20
7218;DHT22;3650;53.580;10.094;2023-04-25T09:33:10;9.80;47.60
7218;DHT22;3650;53.580;10.094;2023-04-25T09:35:39;9.80;46.50
7218;DHT22;3650;53.580;10.094;2023-04-25T09:38:12;9.80;46.80
7218;DHT22;3650;53.580;10.094;2023-04-25T09:40:40;9.90;46.40
7218;DHT22;3650;53.580;10.094;2023-04-25T09:43:09;9.90;46.90
7218;DHT22;3650;53.580;10.094;2023-04-25T09:45:46;9.90;45.40
7218;DHT22;3650;53.580;10.094;2023-04-25T09:48:17;9.80;44.70
7218;DHT22;3650;53.580;10.094;2023-04-25T09:50:44;9.90;47.00
7218;DHT22;3650;53.580;10.094;2023-04-25T09:53:12;9.80;52.00
7218;DHT22;3650;53.580;10.094;2023-04-25T09:55:40;9.80;52.90
7218;DHT22;3650;53.580;10.094;2023-04-25T09:58:09;9.60;53.60
7218;DHT22;3650;53.580;10.094;2023-04-25T10:00:38;9.60;55.40
7218;DHT22;3650;53.580;10.094;2023-04-25T10:03:05;9.50;56.80
7218;DHT22;3650;53.580;10.094;2023-04-25T10:05:34;9.50;58.70
7218;DHT22;3650;53.580;10.094;2023-04-25T10:08:03;9.50;60.10
7218;DHT22;3650;53.580;10.094;2023-04-25T10:10:32;9.50;61.20
7218;DHT22;3650;53.580;10.094;2023-04-25T10:13:05;9.50;61.50
7218;DHT22;3650;53.580;10.094;2023-04-25T10:15:35;9.40;60.40
7218;DHT22;3650;53.580;10.094;2023-04-25T10:18:02;9.60;60.40
7218;DHT22;3650;53.580;10.094;2023-04-25T10:20:30;9.70;60.00
7218;DHT22;3650;53.580;10.094;2023-04-25T10:23:03;9.80;57.90
7218;DHT22;3650;53.580;10.094;2023-04-25T10:25:33;9.80;55.80
7218;DHT22;3650;53.580;10.094;2023-04-25T10:28:00;9.80;50.50
7218;DHT22;3650;53.580;10.094;2023-04-25T10:30:28;9.80;48.70
7218;DHT22;3650;53.580;10.094;2023-04-25T10:32:55;9.90;47.30
7218;DHT22;3650;53.580;10.094;2023-04-25T10:35:26;9.90;45.00
7218;DHT22;3650;53.580;10.094;2023-04-25T10:38:00;9.90;45.30
7218;DHT22;3650;53.580;10.094;2023-04-25T10:40:29;10.00;42.80
7218;DHT22;3650;53.580;10.094;2023-04-25T10:43:34;10.00;42.10
7218;DHT22;3650;53.580;10.094;2023-04-25T10:46:01;10.00;42.50
7218;DHT22;3650;53.580;10.094;2023-04-25T10:48:30;10.10;42.40
7218;DHT22;3650;53.580;10.094;2023-04-25T10:51:07;10.10;41.70
7218;DHT22;3650;53.580;10.094;2023-04-25T10:53:34;10.10;43.00
7218;DHT22;3650;53.580;10.094;2023-04-25T10:56:09;10.20;42.10
7218;DHT22;3650;53.580;10.094;2023-04-25T10:58:42;10.20;42.30
7218;DHT22;3650;53.580;10.094;2023-04-25T11:01:09;10.30;42.40
7218;DHT22;3650;53.580;10.094;2023-04-25T11:03:39;10.40;42.30
7218;DHT22;3650;53.580;10.094;2023-04-25T11:06:15;10.40;41.80
7218;DHT22;3650;53.580;10.094;2023-04-25T11:08:48;10.50;39.20
7218;DHT22;3650;53.580;10.094;2023-04-25T11:11:15;10.50;37.00
7218;DHT22;3650;53.580;10.094;2023-04-25T11:13:44;10.50;37.00
7218;DHT22;3650;53.580;10.094;2023-04-25T11:16:10;10.50;37.00
7218;DHT22;3650;53.580;10.094;2023-04-25T11:18:37;10.50;37.00
7218;DHT22;3650;53.580;10.094;2023-04-25T11:21:04;10.60;35.90
7218;DHT22;3650;53.580;10.094;2023-04-25T11:23:32;10.50;35.50
7218;DHT22;3650;53.580;10.094;2023-04-25T11:25:59;10.50;36.10
7218;DHT22;3650;53.580;10.094;2023-04-25T11:28:27;10.50;37.80
7218;DHT22;3650;53.580;10.094;2023-04-25T11:30:55;10.50;38.70
7218;DHT22;3650;53.580;10.094;2023-04-25T11:33:23;10.50;39.60
7218;DHT22;3650;53.580;10.094;2023-04-25T11:35:53;10.50;39.70
7218;DHT22;3650;53.580;10.094;2023-04-25T11:38:20;10.40;39.60
7218;DHT22;3650;53.580;10.094;2023-04-25T11:40:49;10.40;40.10
7218;DHT22;3650;53.580;10.094;2023-04-25T11:43:17;10.30;40.20
7218;DHT22;3650;53.580;10.094;2023-04-25T11:45:46;10.30;39.70
7218;DHT22;3650;53.580;10.094;2023-04-25T11:48:15;10.30;39.80
7218;DHT22;3650;53.580;10.094;2023-04-25T11:50:42;10.30;40.20
7218;DHT22;3650;53.580;10.094;2023-04-25T11:53:09;10.30;40.40
7218;DHT22;3650;53.580;10.094;2023-04-25T11:55:37;10.30;40.60
7218;DHT22;3650;53.580;10.094;2023-04-25T11:58:04;10.30;41.40
7218;DHT22;3650;53.580;10.094;2023-04-25T12:00:31;10.30;41.40
7218;DHT22;3650;53.580;10.094;2023-04-25T12:02:58;10.40;41.30
7218;DHT22;3650;53.580;10.094;2023-04-25T12:05:29;10.40;41.50
7218;DHT22;3650;53.580;10.094;2023-04-25T12:08:09;10.50;41.60
7218;DHT22;3650;53.580;10.094;2023-04-25T12:10:37;10.60;40.30
7218;DHT22;3650;53.580;10.094;2023-04-25T12:13:18;10.60;40.50
7218;DHT22;3650;53.580;10.094;2023-04-25T12:15:45;10.80;39.90
7218;DHT22;3650;53.580;10.094;2023-04-25T12:18:12;10.90;39.70
7218;DHT22;3650;53.580;10.094;2023-04-25T12:20:41;10.90;38.70
7218;DHT22;3650;53.580;10.094;2023-04-25T12:23:09;11.00;37.80
7218;DHT22;3650;53.580;10.094;2023-04-25T12:25:37;11.00;34.50
7218;DHT22;3650;53.580;10.094;2023-04-25T12:28:16;11.00;32.80
7218;DHT22;3650;53.580;10.094;2023-04-25T12:30:57;11.10;32.40
7218;DHT22;3650;53.580;10.094;2023-04-25T12:33:25;11.00;32.40
7218;DHT22;3650;53.580;10.094;2023-04-25T12:35:54;11.00;32.90
7218;DHT22;3650;53.580;10.094;2023-04-25T12:38:22;11.00;33.00
7218;DHT22;3650;53.580;10.094;2023-04-25T12:40:49;11.00;30.20
7218;DHT22;3650;53.580;10.094;2023-04-25T12:43:16;11.00;30.10
7218;DHT22;3650;53.580;10.094;2023-04-25T12:45:43;11.00;30.20
7218;DHT22;3650;53.580;10.094;2023-04-25T12:48:10;11.10;30.50
7218;DHT22;3650;53.580;10.094;2023-04-25T12:50:37;11.10;30.90
7218;DHT22;3650;53.580;10.094;2023-04-25T12:53:05;11.20;32.00
7218;DHT22;3650;53.580;10.094;2023-04-25T12:55:32;11.30;30.30
7218;DHT22;3650;53.580;10.094;2023-04-25T12:57:58;11.40;30.70
7218;DHT22;3650;53.580;10.094;2023-04-25T13:00:25;11.40;31.00
7218;DHT22;3650;53.580;10.094;2023-04-25T13:02:52;11.30;31.30
7218;DHT22;3650;53.580;10.094;2023-04-25T13:05:19;11.30;30.20
7218;DHT22;3650;53.580;10.094;2023-04-25T13:07:46;11.20;30.50
7218;DHT22;3650;53.580;10.094;2023-04-25T13:10:14;11.10;32.20
7218;DHT22;3650;53.580;10.094;2023-04-25T13:12:41;11.10;33.70
7218;DHT22;3650;53.580;10.094;2023-04-25T13:15:09;11.20;34.70
7218;DHT22;3650;53.580;10.094;2023-04-25T13:17:36;11.20;35.20
7218;DHT22;3650;53.580;10.094;2023-04-25T13:20:05;11.20;34.90
7218;DHT22;3650;53.580;10.094;2023-04-25T13:22:34;11.30;34.10
7218;DHT22;3650;53.580;10.094;2023-04-25T13:25:02;11.30;34.10
7218;DHT22;3650;53.580;10.094;2023-04-25T13:27:30;11.40;34.30
7218;DHT22;3650;53.580;10.094;2023-04-25T13:29:58;11.30;34.60
7218;DHT22;3650;53.580;10.094;2023-04-25T13:32:25;11.10;35.30
7218;DHT22;3650;53.580;10.094;2023-04-25T13:34:52;11.00;36.90
7218;DHT22;3650;53.580;10.094;2023-04-25T13:37:19;10.90;37.30
7218;DHT22;3650;53.580;10.094;2023-04-25T13:39:46;10.80;38.00
7218;DHT22;3650;53.580;10.094;2023-04-25T13:42:13;10.80;37.50
7218;DHT22;3650;53.580;10.094;2023-04-25T13:44:41;10.70;38.90
7218;DHT22;3650;53.580;10.094;2023-04-25T13:47:08;10.70;39.90
7218;DHT22;3650;53.580;10.094;2023-04-25T13:49:35;10.70;39.30
7218;DHT22;3650;53.580;10.094;2023-04-25T13:52:01;10.70;39.60
7218;DHT22;3650;53.580;10.094;2023-04-25T13:54:28;10.70;39.60
7218;DHT22;3650;53.580;10.094;2023-04-25T13:56:55;10.70;40.50
7218;DHT22;3650;53.580;10.094;2023-04-25T13:59:24;10.60;40.00
7218;DHT22;3650;53.580;10.094;2023-04-25T14:01:52;10.50;40.00
7218;DHT22;3650;53.580;10.094;2023-04-25T14:04:19;10.50;39.60
7218;DHT22;3650;53.580;10.094;2023-04-25T14:06:45;10.40;38.70
7218;DHT22;3650;53.580;10.094;2023-04-25T14:09:12;10.30;39.00
7218;DHT22;3650;53.580;10.094;2023-04-25T14:11:39;10.20;38.00
7218;DHT22;3650;53.580;10.094;2023-04-25T14:14:06;10.20;37.80
7218;DHT22;3650;53.580;10.094;2023-04-25T14:16:33;10.20;38.50
7218;DHT22;3650;53.580;10.094;2023-04-25T14:19:01;10.20;38.40
7218;DHT22;3650;53.580;10.094;2023-04-25T14:21:29;10.20;38.80
7218;DHT22;3650;53.580;10.094;2023-04-25T14:23:57;10.20;38.70
7218;DHT22;3650;53.580;10.094;2023-04-25T14:26:23;10.20;39.30
7218;DHT22;3650;53.580;10.094;2023-04-25T14:28:51;10.20;39.80
7218;DHT22;3650;53.580;10.094;2023-04-25T14:31:17;10.20;40.10
7218;DHT22;3650;53.580;10.094;2023-04-25T14:33:44;10.30;41.20
7218;DHT22;3650;53.580;10.094;2023-04-25T14:36:12;10.30;41.80
7218;DHT22;3650;53.580;10.094;2023-04-25T14:38:39;10.40;42.30
7218;DHT22;3650;53.580;10.094;2023-04-25T14:41:06;10.40;42.00
7218;DHT22;3650;53.580;10.094;2023-04-25T14:43:33;10.50;41.70
7218;DHT22;3650;53.580;10.094;2023-04-25T14:46:00;10.60;40.70
7218;DHT22;3650;53.580;10.094;2023-04-25T14:48:27;10.60;38.80
7218;DHT22;3650;53.580;10.094;2023-04-25T14:50:53;10.70;36.90
7218;DHT22;3650;53.580;10.094;2023-04-25T14:53:22;10.70;35.80
7218;DHT22;3650;53.580;10.094;2023-04-25T14:55:49;10.80;34.20
7218;DHT22;3650;53.580;10.094;2023-04-25T14:58:16;10.90;33.70
7218;DHT22;3650;53.580;10.094;2023-04-25T15:00:42;10.90;33.10
7218;DHT22;3650;53.580;10.094;2023-04-25T15:03:09;10.90;32.90
7218;DHT22;3650;53.580;10.094;2023-04-25T15:05:38;10.90;32.80
7218;DHT22;3650;53.580;10.094;2023-04-25T15:08:05;11.00;30.70
7218;DHT22;3650;53.580;10.094;2023-04-25T15:10:34;11.00;29.90
7218;DHT22;3650;53.580;10.094;2023-04-25T15:13:00;11.00;30.60
7218;DHT22;3650;53.580;10.094;2023-04-25T15:15:27;10.90;32.50
7218;DHT22;3650;53.580;10.094;2023-04-25T15:17:54;10.70;34.30
7218;DHT22;3650;53.580;10.094;2023-04-25T15:20:23;10.80;35.40
7218;DHT22;3650;53.580;10.094;2023-04-25T15:22:50;10.80;35.90
7218;DHT22;3650;53.580;10.094;2023-04-25T15:25:17;10.70;36.60
7218;DHT22;3650;53.580;10.094;2023-04-25T15:27:46;10.70;35.70
7218;DHT22;3650;53.580;10.094;2023-04-25T15:30:14;10.60;35.00
7218;DHT22;3650;53.580;10.094;2023-04-25T15:32:42;10.60;34.60
7218;DHT22;3650;53.580;10.094;2023-04-25T15:35:09;10.60;34.30
7218;DHT22;3650;53.580;10.094;2023-04-25T15:37:37;10.60;35.60
7218;DHT22;3650;53.580;10.094;2023-04-25T15:40:05;10.60;34.70
7218;DHT22;3650;53.580;10.094;2023-04-25T15:42:35;10.60;34.40
7218;DHT22;3650;53.580;10.094;2023-04-25T15:45:04;10.60;34.90
7218;DHT22;3650;53.580;10.094;2023-04-25T15:47:31;10.60;35.30
7218;DHT22;3650;53.580;10.094;2023-04-25T15:49:58;10.60;36.20
7218;DHT22;3650;53.580;10.094;2023-04-25T15:52:25;10.60;37.00
7218;DHT22;3650;53.580;10.094;2023-04-25T15:54:52;10.60;35.90
7218;DHT22;3650;53.580;10.094;2023-04-25T15:57:20;10.70;34.90